Main page
METAR-TAF:

METAR-TAF

Airports :

Mariehamn Airport

Mariehamn, Finland

latitude: 60-07N, longitude: 019-54E, elevation: 6 m

Current weather observation

The report was made 26 minutes ago, at 03:50 UTC
Wind 5 kt from the North/Northeast
Temperature -4°C
Humidity 93%
Pressure 999 hPa
Visibility 10 km or more
no clouds below 1500 m and no cumulonimbus

METAR: EFMA 250350Z AUTO 02005KT CAVOK M04/M05 Q0999

Time: 06:16 (04:16 UTC)

Forecast

The report was made 1 hour and 46 minutes ago, at 02:30 UTC
Forecast valid from 25 at 03 UTC to 25 at 12 UTC
Wind 2 kt from variable directions
Visibility 10 km or more
no clouds below 1500 m and no cumulonimbus
Becoming
from 25 at 07 UTC to 25 at 09 UTC
Wind 10 kt from the East

TAF: EFMA 250230Z 2503/2512 VRB02KT CAVOK BECMG 2507/2509 10010KT

Weather observations and forecasts of more than 4000 airports (METAR and TAF reports).

The available stations are represented by yellow and red dots on the map.

Hover mouse over dot to see the name of the station.

Then click to see weather observations and forecasts.

To change the map : click on the green buttons with a black cross to zoom in, on the green button with a dash to zoom out, or on the green arrows for adjacent maps.


METAR-TAF: